Αρχική σελίδα
METAR-TAF:

METAR-TAF

Αεροδρόμια :

Enfidha-Hammamet

Hammamet, Τυνησία

γεωγραφικό πλάτος: 36-04-34N, γεωγραφικό μήκος: 10-26-19E, υψόμετρο: 6 μ

Παρών καιρός

Η αναφορά έγινε 39 λεπτά πριν, στις 17:30 UTC
Άνεμος 4 kt από Α/NA
Θερμοκρασία 17°C
Υγρασία 77%
Πίεση 1009 hPa
Ορατότητα 10 χλμ και άνω
Δεν υπάρχουν νέφη με βάση κάτω από τα 1500 μ. και δεν υπάρχουν νέφη σωρειτομελανίτες.

METAR: DTNH 181730Z 11004KT CAVOK 17/13 Q1009

Χρόνος: 19:09 (18:09 UTC)

Πρόγνωση Καιρού

Η αναφορά έγινε 47 λεπτά πριν, στις 17:22 UTC
Η πρόγνωση ισχύει από τις 18 στις 18 UTC έως τις 19 στις 18 UTC
Άνεμος 5 kt από Α
Ορατότητα 10 χλμ και άνω
Δεν υπάρχουν νέφη με βάση κάτω από τα 1500 μ. και δεν υπάρχουν νέφη σωρειτομελανίτες.
Προσωρινά
από 19 στις 04 UTC έως τις 19 στις 10 UTC
Άνεμος 15 kt από ΝΔ με ριπές μέχρι 25 kt

TAF: DTNH 181722Z 1818/1918 10005KT CAVOK TEMPO 1904/1910 22015G25KT

Μετεωρολογικές αναφορές και προγνώσεις για περισσότερα από 4000 αεροδρόμια (δελτία METAR και TAF).

Οι διαθέσιμοι σταθμοί απεικονίζονται στο χάρτη με κίτρινες και κόκκινες κουκκίδες.

Μετακινήστε το ποντίκι πάνω από τις κουκκίδες για να δείτε το όνομα του σταθμού.

Στη συνέχεια, κάντε κλικ για να δείτε τις μετεωρολογικές αναφορές και τις προγνώσεις καιρού.

Για να αλλάξετε το χάρτη: κάντε κλικ στα πράσινα κουμπιά με τον μαύρο σταυρό για να ζουμάρετε, στο πράσινο κουμπί με την παύλα για να αφαιρέσετε το ζουμ ή στα πράσινα βέλη για να αντιπαραβάλλετε χάρτες.


METAR-TAF: